sensor_id;sensor_type;location;lat;lon;timestamp;temperature;humidity
2621;DHT22;1320;48.128;11.592;2023-02-28T00:01:17;0.30;99.30
2621;DHT22;1320;48.128;11.592;2023-02-28T00:03:42;0.30;99.30
2621;DHT22;1320;48.128;11.592;2023-02-28T00:06:08;0.20;99.20
2621;DHT22;1320;48.128;11.592;2023-02-28T00:08:38;0.20;99.20
2621;DHT22;1320;48.128;11.592;2023-02-28T00:11:07;0.20;99.20
2621;DHT22;1320;48.128;11.592;2023-02-28T00:13:35;0.20;99.30
2621;DHT22;1320;48.128;11.592;2023-02-28T00:16:09;0.20;99.40
2621;DHT22;1320;48.128;11.592;2023-02-28T00:18:36;0.20;99.70
2621;DHT22;1320;48.128;11.592;2023-02-28T00:21:02;0.20;99.40
2621;DHT22;1320;48.128;11.592;2023-02-28T00:23:29;0.20;99.40
2621;DHT22;1320;48.128;11.592;2023-02-28T00:25:55;0.20;99.40
2621;DHT22;1320;48.128;11.592;2023-02-28T00:28:22;0.10;99.40
2621;DHT22;1320;48.128;11.592;2023-02-28T00:30:48;0.10;99.40
2621;DHT22;1320;48.128;11.592;2023-02-28T00:33:13;0.10;99.50
2621;DHT22;1320;48.128;11.592;2023-02-28T00:35:39;0.20;99.60
2621;DHT22;1320;48.128;11.592;2023-02-28T00:38:05;0.10;99.50
2621;DHT22;1320;48.128;11.592;2023-02-28T00:40:31;0.10;99.50
2621;DHT22;1320;48.128;11.592;2023-02-28T00:42:57;0.10;99.60
2621;DHT22;1320;48.128;11.592;2023-02-28T00:45:22;0.10;99.60
2621;DHT22;1320;48.128;11.592;2023-02-28T00:47:48;0.10;99.60
2621;DHT22;1320;48.128;11.592;2023-02-28T00:50:19;0.10;99.60
2621;DHT22;1320;48.128;11.592;2023-02-28T00:52:45;0.10;99.70
2621;DHT22;1320;48.128;11.592;2023-02-28T00:55:11;0.10;99.60
2621;DHT22;1320;48.128;11.592;2023-02-28T00:57:37;0.00;99.60
2621;DHT22;1320;48.128;11.592;2023-02-28T01:00:03;0.00;99.60
2621;DHT22;1320;48.128;11.592;2023-02-28T01:02:29;0.00;99.70
2621;DHT22;1320;48.128;11.592;2023-02-28T01:04:55;0.00;99.70
2621;DHT22;1320;48.128;11.592;2023-02-28T01:07:22;0.00;99.70
2621;DHT22;1320;48.128;11.592;2023-02-28T01:09:48;0.00;99.80
2621;DHT22;1320;48.128;11.592;2023-02-28T01:12:14;0.00;99.80
2621;DHT22;1320;48.128;11.592;2023-02-28T01:14:39;-0.10;99.80
2621;DHT22;1320;48.128;11.592;2023-02-28T01:17:05;0.00;99.80
2621;DHT22;1320;48.128;11.592;2023-02-28T01:19:31;-0.10;99.80
2621;DHT22;1320;48.128;11.592;2023-02-28T01:21:57;0.00;99.90
2621;DHT22;1320;48.128;11.592;2023-02-28T01:24:25;-0.10;99.90
2621;DHT22;1320;48.128;11.592;2023-02-28T01:26:51;0.00;99.90
2621;DHT22;1320;48.128;11.592;2023-02-28T01:29:16;-0.10;99.90
2621;DHT22;1320;48.128;11.592;2023-02-28T01:31:42;-0.10;99.90
2621;DHT22;1320;48.128;11.592;2023-02-28T01:34:07;-0.10;99.90
2621;DHT22;1320;48.128;11.592;2023-02-28T01:36:33;-0.10;99.90
2621;DHT22;1320;48.128;11.592;2023-02-28T01:38:59;-0.10;99.90
2621;DHT22;1320;48.128;11.592;2023-02-28T01:41:29;-0.10;99.90
2621;DHT22;1320;48.128;11.592;2023-02-28T01:46:48;-0.20;99.90
2621;DHT22;1320;48.128;11.592;2023-02-28T01:49:15;-0.20;99.90
2621;DHT22;1320;48.128;11.592;2023-02-28T01:51:45;-0.20;99.90
2621;DHT22;1320;48.128;11.592;2023-02-28T01:54:23;-0.20;99.90
2621;DHT22;1320;48.128;11.592;2023-02-28T01:57:18;-0.30;99.90
2621;DHT22;1320;48.128;11.592;2023-02-28T01:59:59;-0.30;99.90
2621;DHT22;1320;48.128;11.592;2023-02-28T02:02:27;-0.20;99.90
2621;DHT22;1320;48.128;11.592;2023-02-28T02:05:10;-0.30;99.90
2621;DHT22;1320;48.128;11.592;2023-02-28T02:07:38;-0.30;99.90
2621;DHT22;1320;48.128;11.592;2023-02-28T02:18:52;-0.30;99.90
2621;DHT22;1320;48.128;11.592;2023-02-28T02:21:45;-0.40;99.90
2621;DHT22;1320;48.128;11.592;2023-02-28T02:35:15;-0.40;99.90
2621;DHT22;1320;48.128;11.592;2023-02-28T02:37:51;-0.40;99.90
2621;DHT22;1320;48.128;11.592;2023-02-28T02:40:25;-0.40;99.90
2621;DHT22;1320;48.128;11.592;2023-02-28T02:43:00;-0.40;99.90
2621;DHT22;1320;48.128;11.592;2023-02-28T02:45:43;-0.40;99.90
2621;DHT22;1320;48.128;11.592;2023-02-28T02:48:13;-0.40;99.90
2621;DHT22;1320;48.128;11.592;2023-02-28T02:50:46;-0.40;99.90
2621;DHT22;1320;48.128;11.592;2023-02-28T02:53:17;-0.40;99.90
2621;DHT22;1320;48.128;11.592;2023-02-28T02:55:47;-0.40;99.90
2621;DHT22;1320;48.128;11.592;2023-02-28T02:58:19;-0.40;99.90
2621;DHT22;1320;48.128;11.592;2023-02-28T03:00:50;-0.40;99.90
2621;DHT22;1320;48.128;11.592;2023-02-28T03:03:19;-0.40;99.90
2621;DHT22;1320;48.128;11.592;2023-02-28T03:05:55;-0.50;99.90
2621;DHT22;1320;48.128;11.592;2023-02-28T03:08:22;-0.50;99.90
2621;DHT22;1320;48.128;11.592;2023-02-28T03:10:59;-0.50;99.90
2621;DHT22;1320;48.128;11.592;2023-02-28T03:16:22;-0.50;99.90
2621;DHT22;1320;48.128;11.592;2023-02-28T03:24:04;-0.60;99.90
2621;DHT22;1320;48.128;11.592;2023-02-28T03:26:31;-0.60;99.90
2621;DHT22;1320;48.128;11.592;2023-02-28T03:31:49;-0.60;99.90
2621;DHT22;1320;48.128;11.592;2023-02-28T03:34:29;-0.70;99.90
2621;DHT22;1320;48.128;11.592;2023-02-28T03:39:42;-0.70;99.90
2621;DHT22;1320;48.128;11.592;2023-02-28T03:42:16;-0.70;99.90
2621;DHT22;1320;48.128;11.592;2023-02-28T03:45:32;-0.70;99.90
2621;DHT22;1320;48.128;11.592;2023-02-28T03:50:26;-0.70;99.90
2621;DHT22;1320;48.128;11.592;2023-02-28T03:53:04;-0.70;99.90
2621;DHT22;1320;48.128;11.592;2023-02-28T03:55:37;-0.80;99.90
2621;DHT22;1320;48.128;11.592;2023-02-28T04:00:54;-0.70;99.90
2621;DHT22;1320;48.128;11.592;2023-02-28T04:03:21;-0.70;99.90
2621;DHT22;1320;48.128;11.592;2023-02-28T04:05:54;-0.70;99.90
2621;DHT22;1320;48.128;11.592;2023-02-28T04:08:21;-0.80;99.90
2621;DHT22;1320;48.128;11.592;2023-02-28T04:13:51;-0.80;99.90
2621;DHT22;1320;48.128;11.592;2023-02-28T04:16:17;-0.80;99.90
2621;DHT22;1320;48.128;11.592;2023-02-28T04:18:43;-0.80;99.90
2621;DHT22;1320;48.128;11.592;2023-02-28T04:21:09;-0.80;99.90
2621;DHT22;1320;48.128;11.592;2023-02-28T04:23:35;-0.80;99.90
2621;DHT22;1320;48.128;11.592;2023-02-28T04:26:01;-0.80;99.90
2621;DHT22;1320;48.128;11.592;2023-02-28T04:28:27;-0.80;99.90
2621;DHT22;1320;48.128;11.592;2023-02-28T04:31:01;-0.80;99.90
2621;DHT22;1320;48.128;11.592;2023-02-28T04:33:28;-0.80;99.90
2621;DHT22;1320;48.128;11.592;2023-02-28T04:36:04;-0.80;99.90
2621;DHT22;1320;48.128;11.592;2023-02-28T04:38:33;-0.70;99.90
2621;DHT22;1320;48.128;11.592;2023-02-28T04:40:59;-0.70;99.90
2621;DHT22;1320;48.128;11.592;2023-02-28T04:43:29;-0.70;99.90
2621;DHT22;1320;48.128;11.592;2023-02-28T04:45:56;-0.60;99.90
2621;DHT22;1320;48.128;11.592;2023-02-28T04:48:23;-0.60;99.90
2621;DHT22;1320;48.128;11.592;2023-02-28T04:50:50;-0.60;99.90
2621;DHT22;1320;48.128;11.592;2023-02-28T04:53:16;-0.60;99.90
2621;DHT22;1320;48.128;11.592;2023-02-28T04:55:42;-0.50;99.90
2621;DHT22;1320;48.128;11.592;2023-02-28T04:58:08;-0.50;99.90
2621;DHT22;1320;48.128;11.592;2023-02-28T05:00:33;-0.50;99.90
2621;DHT22;1320;48.128;11.592;2023-02-28T05:02:59;-0.40;99.90
2621;DHT22;1320;48.128;11.592;2023-02-28T05:05:25;-0.40;99.90
2621;DHT22;1320;48.128;11.592;2023-02-28T05:07:50;-0.40;99.90
2621;DHT22;1320;48.128;11.592;2023-02-28T05:10:16;-0.40;99.90
2621;DHT22;1320;48.128;11.592;2023-02-28T05:12:42;-0.30;99.90
2621;DHT22;1320;48.128;11.592;2023-02-28T05:15:12;-0.30;99.90
2621;DHT22;1320;48.128;11.592;2023-02-28T05:17:38;-0.20;99.90
2621;DHT22;1320;48.128;11.592;2023-02-28T05:20:04;-0.10;99.90
2621;DHT22;1320;48.128;11.592;2023-02-28T05:22:30;-0.10;99.90
2621;DHT22;1320;48.128;11.592;2023-02-28T05:24:56;-0.10;99.90
2621;DHT22;1320;48.128;11.592;2023-02-28T05:27:21;-0.10;99.90
2621;DHT22;1320;48.128;11.592;2023-02-28T05:29:47;0.00;99.90
2621;DHT22;1320;48.128;11.592;2023-02-28T05:32:14;0.00;99.90
2621;DHT22;1320;48.128;11.592;2023-02-28T05:34:41;0.00;99.90
2621;DHT22;1320;48.128;11.592;2023-02-28T05:37:11;0.00;99.90
2621;DHT22;1320;48.128;11.592;2023-02-28T05:39:37;0.10;99.90
2621;DHT22;1320;48.128;11.592;2023-02-28T05:42:04;0.10;99.90
2621;DHT22;1320;48.128;11.592;2023-02-28T05:44:30;0.00;99.90
2621;DHT22;1320;48.128;11.592;2023-02-28T05:46:55;0.00;99.90
2621;DHT22;1320;48.128;11.592;2023-02-28T05:49:21;0.10;99.90
2621;DHT22;1320;48.128;11.592;2023-02-28T05:51:47;0.10;99.90
2621;DHT22;1320;48.128;11.592;2023-02-28T05:54:13;0.10;99.90
2621;DHT22;1320;48.128;11.592;2023-02-28T05:56:39;0.10;99.90
2621;DHT22;1320;48.128;11.592;2023-02-28T05:59:06;0.20;99.90
2621;DHT22;1320;48.128;11.592;2023-02-28T06:01:38;0.20;99.90
2621;DHT22;1320;48.128;11.592;2023-02-28T06:04:06;0.20;99.90
2621;DHT22;1320;48.128;11.592;2023-02-28T06:06:32;0.20;99.90
2621;DHT22;1320;48.128;11.592;2023-02-28T06:09:00;0.20;99.90
2621;DHT22;1320;48.128;11.592;2023-02-28T06:11:26;0.20;99.90
2621;DHT22;1320;48.128;11.592;2023-02-28T06:13:57;0.20;99.90
2621;DHT22;1320;48.128;11.592;2023-02-28T06:16:25;0.20;99.90
2621;DHT22;1320;48.128;11.592;2023-02-28T06:18:52;0.20;99.90
2621;DHT22;1320;48.128;11.592;2023-02-28T06:21:21;0.20;99.90
2621;DHT22;1320;48.128;11.592;2023-02-28T06:23:47;0.20;99.90
2621;DHT22;1320;48.128;11.592;2023-02-28T06:26:13;0.20;99.90
2621;DHT22;1320;48.128;11.592;2023-02-28T06:28:38;0.20;99.90
2621;DHT22;1320;48.128;11.592;2023-02-28T06:31:09;0.20;99.90
2621;DHT22;1320;48.128;11.592;2023-02-28T06:33:36;0.20;99.90
2621;DHT22;1320;48.128;11.592;2023-02-28T06:36:02;0.20;99.90
2621;DHT22;1320;48.128;11.592;2023-02-28T06:38:28;0.30;99.90
2621;DHT22;1320;48.128;11.592;2023-02-28T06:40:58;0.20;99.90
2621;DHT22;1320;48.128;11.592;2023-02-28T06:43:24;0.30;99.90
2621;DHT22;1320;48.128;11.592;2023-02-28T06:45:53;0.20;99.90
2621;DHT22;1320;48.128;11.592;2023-02-28T06:48:19;0.20;99.90
2621;DHT22;1320;48.128;11.592;2023-02-28T06:50:45;0.20;99.90
2621;DHT22;1320;48.128;11.592;2023-02-28T06:53:10;0.20;99.90
2621;DHT22;1320;48.128;11.592;2023-02-28T06:55:38;0.20;99.90
2621;DHT22;1320;48.128;11.592;2023-02-28T06:58:04;0.20;99.90
2621;DHT22;1320;48.128;11.592;2023-02-28T07:00:40;0.20;99.90
2621;DHT22;1320;48.128;11.592;2023-02-28T07:03:06;0.20;99.90
2621;DHT22;1320;48.128;11.592;2023-02-28T07:05:34;0.20;99.90
2621;DHT22;1320;48.128;11.592;2023-02-28T07:08:00;0.30;99.90
2621;DHT22;1320;48.128;11.592;2023-02-28T07:10:26;0.30;99.90
2621;DHT22;1320;48.128;11.592;2023-02-28T07:12:51;0.40;99.90
2621;DHT22;1320;48.128;11.592;2023-02-28T07:15:17;0.50;99.90
2621;DHT22;1320;48.128;11.592;2023-02-28T07:17:43;0.60;99.90
2621;DHT22;1320;48.128;11.592;2023-02-28T07:20:09;0.60;99.90
2621;DHT22;1320;48.128;11.592;2023-02-28T07:22:35;0.60;99.90
2621;DHT22;1320;48.128;11.592;2023-02-28T07:25:00;0.60;99.90
2621;DHT22;1320;48.128;11.592;2023-02-28T07:27:26;0.60;99.90
2621;DHT22;1320;48.128;11.592;2023-02-28T07:29:52;0.50;99.90
2621;DHT22;1320;48.128;11.592;2023-02-28T07:32:19;0.60;99.90
2621;DHT22;1320;48.128;11.592;2023-02-28T07:34:45;0.60;99.90
2621;DHT22;1320;48.128;11.592;2023-02-28T07:37:10;0.60;99.90
2621;DHT22;1320;48.128;11.592;2023-02-28T07:39:36;0.70;99.90
2621;DHT22;1320;48.128;11.592;2023-02-28T07:42:05;0.70;99.90
2621;DHT22;1320;48.128;11.592;2023-02-28T07:44:32;0.80;99.90
2621;DHT22;1320;48.128;11.592;2023-02-28T07:46:58;0.80;99.90
2621;DHT22;1320;48.128;11.592;2023-02-28T07:49:23;0.80;99.90
2621;DHT22;1320;48.128;11.592;2023-02-28T07:51:49;0.80;99.90
2621;DHT22;1320;48.128;11.592;2023-02-28T07:54:15;0.80;99.90
2621;DHT22;1320;48.128;11.592;2023-02-28T07:56:40;0.80;99.90
2621;DHT22;1320;48.128;11.592;2023-02-28T07:59:06;0.80;99.90
2621;DHT22;1320;48.128;11.592;2023-02-28T08:01:31;0.90;99.90
2621;DHT22;1320;48.128;11.592;2023-02-28T08:03:57;0.90;99.90
2621;DHT22;1320;48.128;11.592;2023-02-28T08:06:24;0.90;99.90
2621;DHT22;1320;48.128;11.592;2023-02-28T08:08:50;0.90;99.90
2621;DHT22;1320;48.128;11.592;2023-02-28T08:11:17;0.90;99.90
2621;DHT22;1320;48.128;11.592;2023-02-28T08:13:43;0.90;99.90
2621;DHT22;1320;48.128;11.592;2023-02-28T08:16:10;0.90;99.90
2621;DHT22;1320;48.128;11.592;2023-02-28T08:18:36;0.90;99.90
2621;DHT22;1320;48.128;11.592;2023-02-28T08:21:09;0.80;99.90
2621;DHT22;1320;48.128;11.592;2023-02-28T08:23:35;0.90;99.90
2621;DHT22;1320;48.128;11.592;2023-02-28T08:26:01;0.90;99.90
2621;DHT22;1320;48.128;11.592;2023-02-28T08:28:27;0.90;99.90
2621;DHT22;1320;48.128;11.592;2023-02-28T08:30:53;0.90;99.90
2621;DHT22;1320;48.128;11.592;2023-02-28T08:33:19;0.90;99.90
2621;DHT22;1320;48.128;11.592;2023-02-28T08:35:44;1.00;99.90
2621;DHT22;1320;48.128;11.592;2023-02-28T08:38:10;1.00;99.90
2621;DHT22;1320;48.128;11.592;2023-02-28T08:40:36;1.00;99.90
2621;DHT22;1320;48.128;11.592;2023-02-28T08:43:01;1.10;99.90
2621;DHT22;1320;48.128;11.592;2023-02-28T08:45:27;1.10;99.90
2621;DHT22;1320;48.128;11.592;2023-02-28T08:47:54;1.10;99.90
2621;DHT22;1320;48.128;11.592;2023-02-28T08:50:21;1.20;99.90
2621;DHT22;1320;48.128;11.592;2023-02-28T08:52:46;1.20;99.90
2621;DHT22;1320;48.128;11.592;2023-02-28T08:55:12;1.20;99.90
2621;DHT22;1320;48.128;11.592;2023-02-28T08:57:38;1.30;99.90
2621;DHT22;1320;48.128;11.592;2023-02-28T09:00:04;1.40;99.90
2621;DHT22;1320;48.128;11.592;2023-02-28T09:02:33;1.40;99.90
2621;DHT22;1320;48.128;11.592;2023-02-28T09:04:59;1.50;99.90
2621;DHT22;1320;48.128;11.592;2023-02-28T09:07:25;1.50;99.90
2621;DHT22;1320;48.128;11.592;2023-02-28T09:09:51;1.50;99.90
2621;DHT22;1320;48.128;11.592;2023-02-28T09:12:24;1.50;99.90
2621;DHT22;1320;48.128;11.592;2023-02-28T09:14:50;1.50;99.90
2621;DHT22;1320;48.128;11.592;2023-02-28T09:17:16;1.50;99.90
2621;DHT22;1320;48.128;11.592;2023-02-28T09:19:42;1.60;99.90
2621;DHT22;1320;48.128;11.592;2023-02-28T09:22:08;1.60;99.90
2621;DHT22;1320;48.128;11.592;2023-02-28T09:24:36;1.70;99.90
2621;DHT22;1320;48.128;11.592;2023-02-28T09:27:02;1.70;99.90
2621;DHT22;1320;48.128;11.592;2023-02-28T09:29:27;1.70;99.90
2621;DHT22;1320;48.128;11.592;2023-02-28T09:31:53;1.70;99.90
2621;DHT22;1320;48.128;11.592;2023-02-28T09:34:19;1.70;99.90
2621;DHT22;1320;48.128;11.592;2023-02-28T09:36:45;1.70;99.90
2621;DHT22;1320;48.128;11.592;2023-02-28T09:39:11;1.80;99.90
2621;DHT22;1320;48.128;11.592;2023-02-28T09:41:41;1.80;99.90
2621;DHT22;1320;48.128;11.592;2023-02-28T09:47:08;1.80;99.90
2621;DHT22;1320;48.128;11.592;2023-02-28T09:49:43;1.80;99.90
2621;DHT22;1320;48.128;11.592;2023-02-28T09:52:21;1.80;99.90
2621;DHT22;1320;48.128;11.592;2023-02-28T09:54:48;1.80;99.90
2621;DHT22;1320;48.128;11.592;2023-02-28T09:57:38;1.80;99.90
2621;DHT22;1320;48.128;11.592;2023-02-28T10:10:55;2.10;99.90
2621;DHT22;1320;48.128;11.592;2023-02-28T10:13:35;2.10;99.90
2621;DHT22;1320;48.128;11.592;2023-02-28T10:16:13;2.10;99.90
2621;DHT22;1320;48.128;11.592;2023-02-28T10:18:46;2.20;99.90
2621;DHT22;1320;48.128;11.592;2023-02-28T10:21:30;2.20;99.70
2621;DHT22;1320;48.128;11.592;2023-02-28T10:26:42;2.20;99.60
2621;DHT22;1320;48.128;11.592;2023-02-28T10:29:10;2.30;99.60
2621;DHT22;1320;48.128;11.592;2023-02-28T10:31:35;2.30;99.50
2621;DHT22;1320;48.128;11.592;2023-02-28T10:34:01;2.40;99.60
2621;DHT22;1320;48.128;11.592;2023-02-28T10:36:28;2.50;99.70
2621;DHT22;1320;48.128;11.592;2023-02-28T10:38:54;2.60;99.50
2621;DHT22;1320;48.128;11.592;2023-02-28T10:41:27;2.70;99.20
2621;DHT22;1320;48.128;11.592;2023-02-28T10:44:12;2.80;99.30
2621;DHT22;1320;48.128;11.592;2023-02-28T10:46:40;3.00;99.00
2621;DHT22;1320;48.128;11.592;2023-02-28T10:49:26;3.10;98.40
2621;DHT22;1320;48.128;11.592;2023-02-28T10:51:56;3.10;98.10
2621;DHT22;1320;48.128;11.592;2023-02-28T10:54:36;3.10;98.20
2621;DHT22;1320;48.128;11.592;2023-02-28T10:57:17;3.10;98.00
2621;DHT22;1320;48.128;11.592;2023-02-28T10:59:43;3.10;98.20
2621;DHT22;1320;48.128;11.592;2023-02-28T11:02:30;3.10;97.90
2621;DHT22;1320;48.128;11.592;2023-02-28T11:04:56;3.10;97.80
2621;DHT22;1320;48.128;11.592;2023-02-28T11:07:23;3.10;98.00
2621;DHT22;1320;48.128;11.592;2023-02-28T11:09:52;3.00;98.10
2621;DHT22;1320;48.128;11.592;2023-02-28T11:12:33;3.10;98.20
2621;DHT22;1320;48.128;11.592;2023-02-28T11:17:43;3.30;98.30
2621;DHT22;1320;48.128;11.592;2023-02-28T11:20:18;3.40;98.00
2621;DHT22;1320;48.128;11.592;2023-02-28T11:22:47;3.50;98.00
2621;DHT22;1320;48.128;11.592;2023-02-28T11:27:50;3.80;97.60
2621;DHT22;1320;48.128;11.592;2023-02-28T11:30:32;4.00;97.40
2621;DHT22;1320;48.128;11.592;2023-02-28T11:32:58;4.00;97.30
2621;DHT22;1320;48.128;11.592;2023-02-28T11:35:38;4.20;97.40
2621;DHT22;1320;48.128;11.592;2023-02-28T11:38:09;4.40;97.30
2621;DHT22;1320;48.128;11.592;2023-02-28T11:49:30;4.60;96.90
2621;DHT22;1320;48.128;11.592;2023-02-28T12:00:19;4.90;96.40
2621;DHT22;1320;48.128;11.592;2023-02-28T12:14:14;5.50;95.60
2621;DHT22;1320;48.128;11.592;2023-02-28T12:19:20;5.40;95.30
2621;DHT22;1320;48.128;11.592;2023-02-28T12:22:01;5.40;95.40
2621;DHT22;1320;48.128;11.592;2023-02-28T12:27:13;5.20;96.30
2621;DHT22;1320;48.128;11.592;2023-02-28T12:32:36;5.40;95.40
2621;DHT22;1320;48.128;11.592;2023-02-28T12:37:54;5.40;95.10
2621;DHT22;1320;48.128;11.592;2023-02-28T12:40:23;5.50;95.20
2621;DHT22;1320;48.128;11.592;2023-02-28T12:42:56;5.50;95.10
2621;DHT22;1320;48.128;11.592;2023-02-28T12:45:27;5.70;95.10
2621;DHT22;1320;48.128;11.592;2023-02-28T12:48:00;5.90;95.00
2621;DHT22;1320;48.128;11.592;2023-02-28T12:50:27;6.20;95.00
2621;DHT22;1320;48.128;11.592;2023-02-28T12:55:31;6.80;94.40
2621;DHT22;1320;48.128;11.592;2023-02-28T13:09:15;7.50;92.00
2621;DHT22;1320;48.128;11.592;2023-02-28T13:11:48;7.30;92.00
2621;DHT22;1320;48.128;11.592;2023-02-28T13:14:24;7.30;91.90
2621;DHT22;1320;48.128;11.592;2023-02-28T13:19:25;7.10;92.10
2621;DHT22;1320;48.128;11.592;2023-02-28T13:21:51;7.10;92.60
2621;DHT22;1320;48.128;11.592;2023-02-28T13:29:41;6.90;92.60
2621;DHT22;1320;48.128;11.592;2023-02-28T13:42:24;6.40;93.00
2621;DHT22;1320;48.128;11.592;2023-02-28T13:47:39;6.30;93.00
2621;DHT22;1320;48.128;11.592;2023-02-28T13:50:35;6.30;93.00
2621;DHT22;1320;48.128;11.592;2023-02-28T13:55:53;6.10;93.10
2621;DHT22;1320;48.128;11.592;2023-02-28T14:06:32;6.20;93.50
2621;DHT22;1320;48.128;11.592;2023-02-28T14:11:35;6.50;93.60
2621;DHT22;1320;48.128;11.592;2023-02-28T14:14:03;6.70;93.60
2621;DHT22;1320;48.128;11.592;2023-02-28T14:21:50;7.40;92.90
2621;DHT22;1320;48.128;11.592;2023-02-28T14:26:57;7.90;91.90
2621;DHT22;1320;48.128;11.592;2023-02-28T14:29:52;8.00;91.60
2621;DHT22;1320;48.128;11.592;2023-02-28T14:37:51;7.80;91.20
2621;DHT22;1320;48.128;11.592;2023-02-28T14:43:03;7.50;91.40
2621;DHT22;1320;48.128;11.592;2023-02-28T14:45:31;7.30;91.80
2621;DHT22;1320;48.128;11.592;2023-02-28T14:47:58;7.20;92.10
2621;DHT22;1320;48.128;11.592;2023-02-28T14:50:31;7.40;92.30
2621;DHT22;1320;48.128;11.592;2023-02-28T15:30:18;9.40;88.50
2621;DHT22;1320;48.128;11.592;2023-02-28T15:32:44;9.30;88.80
2621;DHT22;1320;48.128;11.592;2023-02-28T15:37:48;8.90;89.30
2621;DHT22;1320;48.128;11.592;2023-02-28T15:40:28;8.70;89.80
2621;DHT22;1320;48.128;11.592;2023-02-28T15:43:28;8.50;90.20
2621;DHT22;1320;48.128;11.592;2023-02-28T15:51:28;7.60;90.70
2621;DHT22;1320;48.128;11.592;2023-02-28T15:53:59;7.40;91.10
2621;DHT22;1320;48.128;11.592;2023-02-28T15:56:28;7.20;91.30
2621;DHT22;1320;48.128;11.592;2023-02-28T15:59:04;7.00;91.50
2621;DHT22;1320;48.128;11.592;2023-02-28T16:01:36;6.80;91.80
2621;DHT22;1320;48.128;11.592;2023-02-28T16:04:05;6.70;91.90
2621;DHT22;1320;48.128;11.592;2023-02-28T16:08:59;6.60;92.40
2621;DHT22;1320;48.128;11.592;2023-02-28T16:11:25;6.50;92.40
2621;DHT22;1320;48.128;11.592;2023-02-28T16:13:51;6.40;92.50
2621;DHT22;1320;48.128;11.592;2023-02-28T16:16:18;6.30;92.90
2621;DHT22;1320;48.128;11.592;2023-02-28T16:18:45;6.20;93.00
2621;DHT22;1320;48.128;11.592;2023-02-28T16:21:11;6.10;93.30
2621;DHT22;1320;48.128;11.592;2023-02-28T16:23:36;6.00;93.60
2621;DHT22;1320;48.128;11.592;2023-02-28T16:26:04;5.90;93.80
2621;DHT22;1320;48.128;11.592;2023-02-28T16:28:35;5.80;93.80
2621;DHT22;1320;48.128;11.592;2023-02-28T16:31:04;5.80;94.00
2621;DHT22;1320;48.128;11.592;2023-02-28T16:33:31;5.80;94.30
2621;DHT22;1320;48.128;11.592;2023-02-28T16:35:58;5.70;94.40
2621;DHT22;1320;48.128;11.592;2023-02-28T16:38:24;5.70;94.50
2621;DHT22;1320;48.128;11.592;2023-02-28T16:40:51;5.60;94.60
2621;DHT22;1320;48.128;11.592;2023-02-28T16:43:22;5.60;94.70
2621;DHT22;1320;48.128;11.592;2023-02-28T16:45:48;5.60;94.80
2621;DHT22;1320;48.128;11.592;2023-02-28T16:48:19;5.50;94.80
2621;DHT22;1320;48.128;11.592;2023-02-28T16:50:48;5.50;95.20
2621;DHT22;1320;48.128;11.592;2023-02-28T16:53:14;5.50;95.10
2621;DHT22;1320;48.128;11.592;2023-02-28T16:55:40;5.50;95.20
2621;DHT22;1320;48.128;11.592;2023-02-28T16:58:06;5.40;95.20
2621;DHT22;1320;48.128;11.592;2023-02-28T17:00:32;5.40;95.30
2621;DHT22;1320;48.128;11.592;2023-02-28T17:02:58;5.40;95.30
2621;DHT22;1320;48.128;11.592;2023-02-28T17:05:26;5.40;95.40
2621;DHT22;1320;48.128;11.592;2023-02-28T17:07:53;5.30;95.40
2621;DHT22;1320;48.128;11.592;2023-02-28T17:10:24;5.20;95.50
2621;DHT22;1320;48.128;11.592;2023-02-28T17:12:50;5.20;95.60
2621;DHT22;1320;48.128;11.592;2023-02-28T17:15:18;5.20;95.70
2621;DHT22;1320;48.128;11.592;2023-02-28T17:17:45;5.10;95.80
2621;DHT22;1320;48.128;11.592;2023-02-28T17:20:20;5.10;95.80
2621;DHT22;1320;48.128;11.592;2023-02-28T17:22:50;5.10;95.90
2621;DHT22;1320;48.128;11.592;2023-02-28T17:25:16;5.00;95.90
2621;DHT22;1320;48.128;11.592;2023-02-28T17:27:42;5.00;96.00
2621;DHT22;1320;48.128;11.592;2023-02-28T17:30:20;5.00;96.20
2621;DHT22;1320;48.128;11.592;2023-02-28T17:32:46;5.00;96.20
2621;DHT22;1320;48.128;11.592;2023-02-28T17:35:12;5.00;96.40
2621;DHT22;1320;48.128;11.592;2023-02-28T17:37:38;5.00;96.40
2621;DHT22;1320;48.128;11.592;2023-02-28T17:40:05;5.00;96.50
2621;DHT22;1320;48.128;11.592;2023-02-28T17:42:31;5.00;96.50
2621;DHT22;1320;48.128;11.592;2023-02-28T17:44:56;5.00;96.60
2621;DHT22;1320;48.128;11.592;2023-02-28T17:47:22;5.00;96.60
2621;DHT22;1320;48.128;11.592;2023-02-28T17:49:48;5.00;96.60
2621;DHT22;1320;48.128;11.592;2023-02-28T17:52:13;5.00;96.70
2621;DHT22;1320;48.128;11.592;2023-02-28T17:54:39;5.00;96.60
2621;DHT22;1320;48.128;11.592;2023-02-28T17:57:05;5.00;97.00
2621;DHT22;1320;48.128;11.592;2023-02-28T17:59:30;5.00;96.70
2621;DHT22;1320;48.128;11.592;2023-02-28T18:02:02;5.00;96.70
2621;DHT22;1320;48.128;11.592;2023-02-28T18:04:29;5.00;96.80
2621;DHT22;1320;48.128;11.592;2023-02-28T18:06:55;5.00;96.80
2621;DHT22;1320;48.128;11.592;2023-02-28T18:09:25;5.00;96.90
2621;DHT22;1320;48.128;11.592;2023-02-28T18:11:53;5.00;97.00
2621;DHT22;1320;48.128;11.592;2023-02-28T18:14:20;5.00;96.90
2621;DHT22;1320;48.128;11.592;2023-02-28T18:16:48;5.00;96.90
2621;DHT22;1320;48.128;11.592;2023-02-28T18:19:13;5.00;96.90
2621;DHT22;1320;48.128;11.592;2023-02-28T18:21:41;5.00;96.90
2621;DHT22;1320;48.128;11.592;2023-02-28T18:24:07;5.00;96.90
2621;DHT22;1320;48.128;11.592;2023-02-28T18:26:33;4.90;96.90
2621;DHT22;1320;48.128;11.592;2023-02-28T18:28:59;4.90;96.90
2621;DHT22;1320;48.128;11.592;2023-02-28T18:31:24;4.90;97.00
2621;DHT22;1320;48.128;11.592;2023-02-28T18:33:51;4.90;97.00
2621;DHT22;1320;48.128;11.592;2023-02-28T18:36:19;4.90;97.00
2621;DHT22;1320;48.128;11.592;2023-02-28T18:38:46;4.80;97.10
2621;DHT22;1320;48.128;11.592;2023-02-28T18:41:12;4.80;97.20
2621;DHT22;1320;48.128;11.592;2023-02-28T18:43:37;4.90;97.40
2621;DHT22;1320;48.128;11.592;2023-02-28T18:46:11;4.90;97.50
2621;DHT22;1320;48.128;11.592;2023-02-28T18:48:37;4.90;97.50
2621;DHT22;1320;48.128;11.592;2023-02-28T18:51:15;4.80;97.60
2621;DHT22;1320;48.128;11.592;2023-02-28T18:53:43;4.80;97.50
2621;DHT22;1320;48.128;11.592;2023-02-28T18:56:11;4.90;97.60
2621;DHT22;1320;48.128;11.592;2023-02-28T18:58:37;4.80;97.60
2621;DHT22;1320;48.128;11.592;2023-02-28T19:01:22;4.80;97.60
2621;DHT22;1320;48.128;11.592;2023-02-28T19:03:49;4.80;97.60
2621;DHT22;1320;48.128;11.592;2023-02-28T19:06:16;4.70;97.60
2621;DHT22;1320;48.128;11.592;2023-02-28T19:08:42;4.70;97.70
2621;DHT22;1320;48.128;11.592;2023-02-28T19:11:10;4.70;97.70
2621;DHT22;1320;48.128;11.592;2023-02-28T19:13:36;4.70;97.80
2621;DHT22;1320;48.128;11.592;2023-02-28T19:16:03;4.70;97.90
2621;DHT22;1320;48.128;11.592;2023-02-28T19:18:30;4.70;97.90
2621;DHT22;1320;48.128;11.592;2023-02-28T19:20:57;4.70;97.90
2621;DHT22;1320;48.128;11.592;2023-02-28T19:23:23;4.70;98.00
2621;DHT22;1320;48.128;11.592;2023-02-28T19:25:48;4.70;98.10
2621;DHT22;1320;48.128;11.592;2023-02-28T19:28:14;4.70;98.10
2621;DHT22;1320;48.128;11.592;2023-02-28T19:30:48;4.70;98.20
2621;DHT22;1320;48.128;11.592;2023-02-28T19:33:15;4.70;98.20
2621;DHT22;1320;48.128;11.592;2023-02-28T19:35:40;4.70;98.10
2621;DHT22;1320;48.128;11.592;2023-02-28T19:38:07;4.70;98.10
2621;DHT22;1320;48.128;11.592;2023-02-28T19:40:33;4.70;98.20
2621;DHT22;1320;48.128;11.592;2023-02-28T19:42:59;4.70;98.30
2621;DHT22;1320;48.128;11.592;2023-02-28T19:45:25;4.70;98.30